Time;durP1;ratioP1;P1;durP2;ratioP2;P2;SDS_P1;SDS_P2;PMS_P1;PMS_P2;Temp;Humidity;BMP_temperature;BMP_pressure;BME280_temperature;BME280_humidity;BME280_pressure;Samples;Min_cycle;Max_cycle;Signal;HPM_P1;HPM_P2
2023/03/02 00:02:10;;;;;;;24.13;16.60;;;1.10;99.90;;;;;;5039114;28;20037;-70
2023/03/02 00:04:44;;;;;;;18.90;15.85;;;1.10;99.90;;;;;;5039774;28;20033;-70
2023/03/02 00:07:14;;;;;;;18.75;15.65;;;1.10;99.90;;;;;;5039370;28;20436;-69
2023/03/02 00:09:40;;;;;;;18.05;15.88;;;1.00;99.90;;;;;;5039729;28;20029;-70
2023/03/02 00:12:07;;;;;;;17.98;15.73;;;1.00;99.90;;;;;;5039785;28;20056;-70
2023/03/02 00:14:32;;;;;;;17.83;15.13;;;1.00;99.90;;;;;;5039798;28;20026;-70
2023/03/02 00:16:58;;;;;;;19.98;15.38;;;0.90;99.90;;;;;;5039479;28;20060;-70
2023/03/02 00:19:24;;;;;;;19.38;16.58;;;0.90;99.90;;;;;;5039501;28;20021;-70
2023/03/02 00:21:49;;;;;;;20.23;16.10;;;0.90;99.90;;;;;;5039364;28;20151;-70
2023/03/02 00:24:15;;;;;;;18.38;16.48;;;0.90;99.90;;;;;;5039160;28;20057;-70
2023/03/02 00:26:41;;;;;;;21.52;16.70;;;0.90;99.90;;;;;;5039750;28;20095;-70
2023/03/02 00:29:07;;;;;;;21.70;17.08;;;0.90;99.90;;;;;;5039372;28;20099;-69
2023/03/02 00:31:33;;;;;;;20.40;16.90;;;0.90;99.90;;;;;;5038417;28;20443;-69
2023/03/02 00:33:59;;;;;;;17.13;14.43;;;0.90;99.90;;;;;;5039423;28;20030;-70
2023/03/02 00:36:25;;;;;;;18.35;16.27;;;0.90;99.90;;;;;;5021315;28;20508;-70
2023/03/02 00:38:51;;;;;;;19.23;15.70;;;0.90;99.90;;;;;;5021569;28;20032;-70
2023/03/02 00:41:20;;;;;;;20.88;16.55;;;0.90;99.90;;;;;;5039171;28;20022;-70
2023/03/02 00:43:46;;;;;;;20.05;15.15;;;0.80;99.90;;;;;;5039338;28;20033;-69
2023/03/02 00:46:17;;;;;;;19.25;16.90;;;0.80;99.90;;;;;;5038897;28;20013;-70
2023/03/02 00:48:44;;;;;;;22.27;16.10;;;0.80;99.90;;;;;;5039097;28;20401;-70
2023/03/02 00:51:10;;;;;;;20.75;17.40;;;0.80;99.90;;;;;;5038973;28;20024;-69
2023/03/02 00:53:36;;;;;;;20.77;16.58;;;0.80;99.90;;;;;;5038968;28;20083;-69
2023/03/02 00:56:02;;;;;;;17.45;15.65;;;0.80;99.90;;;;;;5021180;28;20029;-70
2023/03/02 00:58:28;;;;;;;16.55;14.35;;;0.80;99.90;;;;;;5038880;28;20033;-70
2023/03/02 01:00:54;;;;;;;19.08;17.08;;;0.80;99.90;;;;;;5038780;28;20089;-69
2023/03/02 01:03:20;;;;;;;19.70;16.58;;;0.80;99.90;;;;;;5020988;28;20022;-70
2023/03/02 01:05:46;;;;;;;20.02;15.85;;;0.80;99.90;;;;;;5038587;28;20025;-70
2023/03/02 01:08:12;;;;;;;19.10;15.82;;;0.80;99.90;;;;;;5038666;28;20026;-70
2023/03/02 01:10:38;;;;;;;17.85;15.95;;;0.80;99.90;;;;;;5038734;28;20089;-69
2023/03/02 01:13:04;;;;;;;21.52;16.85;;;0.80;99.90;;;;;;5038801;28;20372;-69
2023/03/02 01:15:31;;;;;;;22.75;16.70;;;0.90;99.90;;;;;;5038213;28;20069;-70
2023/03/02 01:17:58;;;;;;;22.88;18.27;;;0.90;99.90;;;;;;5038368;28;20025;-69
2023/03/02 01:20:24;;;;;;;19.50;15.57;;;0.90;99.90;;;;;;5038556;28;20449;-69
2023/03/02 01:22:50;;;;;;;23.27;16.35;;;0.90;99.90;;;;;;5020080;28;20064;-69
2023/03/02 01:25:16;;;;;;;18.65;14.68;;;0.90;99.90;;;;;;5038430;28;20100;-70
2023/03/02 01:27:41;;;;;;;20.70;16.48;;;1.00;99.90;;;;;;5038399;28;20029;-70
2023/03/02 01:30:08;;;;;;;23.80;17.40;;;1.10;99.90;;;;;;5020632;28;20025;-69
2023/03/02 01:32:33;;;;;;;25.05;18.23;;;1.10;99.90;;;;;;5038504;28;20090;-69
2023/03/02 01:34:59;;;;;;;15.93;14.10;;;1.10;99.90;;;;;;5038229;28;20073;-70
2023/03/02 01:37:25;;;;;;;21.15;16.60;;;1.20;99.90;;;;;;5037963;28;20034;-69
2023/03/02 01:39:50;;;;;;;24.45;17.15;;;1.20;99.90;;;;;;5038148;28;20040;-69
2023/03/02 01:42:16;;;;;;;24.27;17.63;;;1.30;99.90;;;;;;5037939;28;20044;-69
2023/03/02 01:44:47;;;;;;;20.73;16.40;;;1.30;99.90;;;;;;5037945;28;20494;-69
2023/03/02 01:47:37;;;;;;;18.42;15.18;;;1.30;99.90;;;;;;5037829;28;20056;-69
2023/03/02 01:50:19;;;;;;;22.77;17.73;;;1.30;99.90;;;;;;5037781;28;20021;-70
2023/03/02 01:52:46;;;;;;;20.67;15.68;;;1.40;99.90;;;;;;5019516;28;20264;-69
2023/03/02 01:55:15;;;;;;;18.02;15.88;;;1.40;99.90;;;;;;5037838;28;20076;-69
2023/03/02 01:57:47;;;;;;;25.13;15.30;;;1.40;99.90;;;;;;5037805;28;20018;-70
2023/03/02 02:00:18;;;;;;;19.25;13.73;;;1.40;99.90;;;;;;5037475;28;20454;-69
2023/03/02 02:02:44;;;;;;;20.92;16.17;;;1.40;99.90;;;;;;5037424;28;20076;-69
2023/03/02 02:05:21;;;;;;;20.58;16.75;;;1.40;99.90;;;;;;5037446;28;20444;-70
2023/03/02 02:07:46;;;;;;;19.80;16.42;;;1.40;99.90;;;;;;5037568;28;20053;-70
2023/03/02 02:10:13;;;;;;;18.73;15.57;;;1.50;99.90;;;;;;5037342;28;20060;-69
2023/03/02 02:12:39;;;;;;;25.17;17.23;;;1.50;99.90;;;;;;5019937;28;20022;-69
2023/03/02 02:15:07;;;;;;;19.27;17.25;;;1.50;99.90;;;;;;5036846;28;20018;-70
2023/03/02 02:17:34;;;;;;;20.27;16.10;;;1.50;99.90;;;;;;5030648;28;20562;-70
2023/03/02 02:20:09;;;;;;;20.63;16.38;;;1.50;99.90;;;;;;5013122;28;20112;-69
2023/03/02 02:23:08;;;;;;;19.67;15.93;;;1.50;99.90;;;;;;5035519;28;20405;-70
2023/03/02 02:25:56;;;;;;;24.83;16.45;;;1.60;99.90;;;;;;5037343;28;20026;-70
2023/03/02 02:28:29;;;;;;;21.13;16.95;;;1.60;99.90;;;;;;5033144;28;20474;-70
2023/03/02 02:31:25;;;;;;;23.98;15.85;;;1.60;99.90;;;;;;5037142;28;20033;-69
2023/03/02 02:33:55;;;;;;;20.85;16.60;;;1.60;99.90;;;;;;5019514;28;20092;-70
2023/03/02 02:36:26;;;;;;;24.52;17.42;;;1.60;99.90;;;;;;5036834;28;20017;-70
2023/03/02 02:38:55;;;;;;;24.80;18.15;;;1.60;99.90;;;;;;5036120;28;20032;-70
2023/03/02 02:41:27;;;;;;;26.00;18.65;;;1.60;99.90;;;;;;5018714;28;20022;-69
2023/03/02 02:43:53;;;;;;;21.58;17.20;;;1.60;99.90;;;;;;5019500;28;20059;-69
2023/03/02 02:46:19;;;;;;;20.65;17.15;;;1.60;99.90;;;;;;5019011;28;20043;-69
2023/03/02 02:48:45;;;;;;;17.55;15.02;;;1.60;99.90;;;;;;5036863;28;20100;-67
2023/03/02 02:51:19;;;;;;;23.73;18.67;;;1.70;99.90;;;;;;5036629;28;20035;-67
2023/03/02 02:53:57;;;;;;;22.10;15.70;;;1.70;99.90;;;;;;5036347;28;20032;-69
2023/03/02 02:56:30;;;;;;;20.60;16.75;;;1.70;99.90;;;;;;5036817;28;20500;-70
2023/03/02 02:59:03;;;;;;;20.48;16.83;;;1.70;99.90;;;;;;5036881;28;20064;-70
2023/03/02 03:01:28;;;;;;;20.25;16.95;;;1.70;99.90;;;;;;5018618;28;20025;-70
2023/03/02 03:03:59;;;;;;;22.50;16.95;;;1.70;99.90;;;;;;5036716;28;20087;-69
2023/03/02 03:06:29;;;;;;;24.60;17.98;;;1.70;99.90;;;;;;5036124;28;20029;-69
2023/03/02 03:09:00;;;;;;;19.75;16.90;;;1.70;99.90;;;;;;5018744;28;20079;-69
2023/03/02 03:11:28;;;;;;;22.33;17.42;;;1.70;99.90;;;;;;5019020;28;20394;-69
2023/03/02 03:13:57;;;;;;;23.88;18.40;;;1.70;99.90;;;;;;5018925;28;20033;-67
2023/03/02 03:16:25;;;;;;;20.73;17.13;;;1.70;99.90;;;;;;5036116;28;20064;-70
2023/03/02 03:18:53;;;;;;;21.75;13.80;;;1.80;99.90;;;;;;5036705;28;20130;-70
2023/03/02 03:21:19;;;;;;;20.92;13.50;;;1.70;99.90;;;;;;5018333;28;20037;-69
2023/03/02 03:23:45;;;;;;;20.88;17.58;;;1.80;99.90;;;;;;5036520;28;20056;-70
2023/03/02 03:26:10;;;;;;;20.27;16.33;;;1.80;99.90;;;;;;5036697;28;20022;-67
2023/03/02 03:28:36;;;;;;;22.83;17.85;;;1.80;99.90;;;;;;5036412;28;20076;-70
2023/03/02 03:31:02;;;;;;;23.83;17.15;;;1.80;99.90;;;;;;5018503;28;20055;-69
2023/03/02 03:33:28;;;;;;;20.48;18.15;;;1.80;99.90;;;;;;5019060;28;20028;-67
2023/03/02 03:35:53;;;;;;;22.00;17.58;;;1.80;99.90;;;;;;5036206;28;20545;-70
2023/03/02 03:38:19;;;;;;;20.92;17.45;;;1.80;99.90;;;;;;5036524;28;20028;-70
2023/03/02 03:40:45;;;;;;;21.17;16.88;;;1.80;99.90;;;;;;5036289;28;20041;-69
2023/03/02 03:43:12;;;;;;;21.05;18.50;;;1.80;99.90;;;;;;5036553;28;20079;-70
2023/03/02 03:45:38;;;;;;;20.48;18.08;;;1.80;99.90;;;;;;5036091;28;20028;-69
2023/03/02 03:48:04;;;;;;;25.33;19.83;;;1.80;99.90;;;;;;5036229;28;20026;-69
2023/03/02 03:50:30;;;;;;;19.30;15.63;;;1.80;99.90;;;;;;5036328;28;20025;-70
2023/03/02 03:52:56;;;;;;;21.65;18.10;;;1.80;99.90;;;;;;5036098;28;20028;-70
2023/03/02 03:55:21;;;;;;;23.48;18.20;;;1.90;99.90;;;;;;5036210;28;20026;-70
2023/03/02 03:57:47;;;;;;;22.63;17.75;;;1.90;99.90;;;;;;5036205;28;20025;-69
2023/03/02 04:00:17;;;;;;;20.17;17.75;;;1.90;99.90;;;;;;5035685;28;20036;-70
2023/03/02 04:02:43;;;;;;;21.63;17.42;;;1.80;99.90;;;;;;5035998;28;20029;-69
2023/03/02 04:05:09;;;;;;;19.15;14.75;;;1.90;99.90;;;;;;5035859;28;20021;-69
2023/03/02 04:07:36;;;;;;;28.00;16.35;;;1.80;99.90;;;;;;5039106;28;20056;-69
2023/03/02 04:10:02;;;;;;;20.33;16.33;;;1.90;99.90;;;;;;5022283;28;20608;-70
2023/03/02 04:12:29;;;;;;;22.08;16.00;;;1.90;99.90;;;;;;5021946;28;20108;-69
2023/03/02 04:14:55;;;;;;;32.10;18.08;;;1.80;99.90;;;;;;5039602;28;20053;-70
2023/03/02 04:17:21;;;;;;;23.35;17.20;;;1.90;99.90;;;;;;5039351;28;20053;-69
2023/03/02 04:19:47;;;;;;;24.08;16.90;;;1.90;99.90;;;;;;5039543;28;20032;-70
2023/03/02 04:22:14;;;;;;;28.02;19.92;;;1.90;99.90;;;;;;5021372;28;20052;-69
2023/03/02 04:24:39;;;;;;;20.70;12.30;;;1.90;99.90;;;;;;5021575;28;20033;-70
2023/03/02 04:27:05;;;;;;;17.25;13.52;;;1.90;99.90;;;;;;5039419;28;20032;-69
2023/03/02 04:29:31;;;;;;;19.45;14.15;;;1.90;99.90;;;;;;5039353;28;20505;-70
2023/03/02 04:31:57;;;;;;;24.10;16.48;;;1.90;99.90;;;;;;5021562;28;20040;-69
2023/03/02 04:34:24;;;;;;;19.10;16.13;;;1.90;99.90;;;;;;5021680;28;20075;-70
2023/03/02 04:36:50;;;;;;;18.55;15.07;;;1.90;99.90;;;;;;5021143;28;20045;-69
2023/03/02 04:39:17;;;;;;;20.92;16.38;;;1.90;99.90;;;;;;5039158;28;20030;-69
2023/03/02 04:41:44;;;;;;;18.23;16.27;;;1.90;99.90;;;;;;5021421;28;20076;-67
2023/03/02 04:44:10;;;;;;;24.13;17.58;;;1.90;99.90;;;;;;5038947;28;20022;-70
2023/03/02 04:46:36;;;;;;;20.00;14.25;;;1.90;99.90;;;;;;5038900;28;20061;-70
2023/03/02 04:49:03;;;;;;;21.08;15.43;;;1.90;99.90;;;;;;5021092;28;20021;-70
2023/03/02 04:51:33;;;;;;;24.15;17.35;;;1.90;99.90;;;;;;5020705;28;20033;-70
2023/03/02 04:54:00;;;;;;;;;;;1.90;99.90;;;;;;5039370;28;20576;-69
2023/03/02 04:56:26;;;;;;;22.95;16.70;;;1.90;99.90;;;;;;5021379;28;19905;-70
2023/03/02 04:58:52;;;;;;;18.63;15.35;;;1.80;99.90;;;;;;5038652;28;20022;-69
2023/03/02 05:01:19;;;;;;;20.70;16.75;;;1.90;99.90;;;;;;5028656;28;20021;-70
2023/03/02 05:03:46;;;;;;;16.02;12.73;;;1.90;99.90;;;;;;5020767;28;20413;-70
2023/03/02 05:06:11;;;;;;;20.48;14.85;;;1.80;99.90;;;;;;5020883;28;20021;-70
2023/03/02 05:08:37;;;;;;;22.55;14.18;;;1.80;99.90;;;;;;5038498;28;20032;-70
2023/03/02 05:11:05;;;;;;;18.83;15.85;;;1.90;99.90;;;;;;5039098;28;20176;-69
2023/03/02 05:13:31;;;;;;;23.17;16.48;;;1.90;99.90;;;;;;5038625;28;20080;-69
2023/03/02 05:15:57;;;;;;;17.48;13.77;;;1.90;99.90;;;;;;5038288;28;20053;-69
2023/03/02 05:18:24;;;;;;;21.23;16.90;;;1.90;99.90;;;;;;5038282;28;20799;-69
2023/03/02 05:20:51;;;;;;;22.83;16.77;;;1.90;99.90;;;;;;5038392;28;20021;-69
2023/03/02 05:23:22;;;;;;;19.35;15.57;;;1.90;99.90;;;;;;5038317;28;20109;-69
2023/03/02 05:25:51;;;;;;;19.65;16.02;;;1.90;99.90;;;;;;5038616;28;20532;-69
2023/03/02 05:28:18;;;;;;;18.63;14.02;;;1.90;99.90;;;;;;5020521;28;20029;-70
2023/03/02 05:30:44;;;;;;;16.52;13.88;;;1.80;99.90;;;;;;5038336;28;20018;-69
2023/03/02 05:33:10;;;;;;;21.20;15.52;;;1.80;99.90;;;;;;5020610;28;20064;-70
2023/03/02 05:35:36;;;;;;;20.30;15.75;;;1.80;99.90;;;;;;5020233;28;20053;-69
2023/03/02 05:38:01;;;;;;;22.48;15.73;;;1.80;99.90;;;;;;5037900;28;20089;-69
2023/03/02 05:40:27;;;;;;;22.10;17.10;;;1.80;99.90;;;;;;5037990;28;20079;-69
2023/03/02 05:42:53;;;;;;;21.27;15.52;;;1.80;99.90;;;;;;5038006;28;20032;-70
2023/03/02 05:45:23;;;;;;;22.65;15.60;;;1.80;99.90;;;;;;5020187;28;20083;-69
2023/03/02 05:47:49;;;;;;;22.55;16.17;;;1.80;99.90;;;;;;5037950;28;20029;-69
2023/03/02 05:50:15;;;;;;;21.60;15.98;;;1.80;99.90;;;;;;5037887;28;20496;-69
2023/03/02 05:52:41;;;;;;;26.83;16.23;;;1.80;99.90;;;;;;5037641;28;20025;-69
2023/03/02 05:55:07;;;;;;;20.80;16.35;;;1.80;99.90;;;;;;5037784;28;20026;-69
2023/03/02 05:57:33;;;;;;;19.30;16.05;;;1.80;99.90;;;;;;5037777;28;20053;-70
2023/03/02 05:59:59;;;;;;;18.35;15.73;;;1.70;99.90;;;;;;5019905;28;20037;-70
2023/03/02 06:02:24;;;;;;;25.42;18.10;;;1.80;99.90;;;;;;5037913;28;20101;-69
2023/03/02 06:04:50;;;;;;;20.55;16.40;;;1.80;99.90;;;;;;5019766;28;20029;-69
2023/03/02 06:07:15;;;;;;;18.35;16.02;;;1.80;99.90;;;;;;5037445;28;20052;-70
2023/03/02 06:09:41;;;;;;;21.30;16.38;;;1.80;99.90;;;;;;5037487;28;20432;-70
2023/03/02 06:12:07;;;;;;;21.02;16.95;;;1.80;99.90;;;;;;5019585;28;20472;-67
2023/03/02 06:14:34;;;;;;;24.73;16.13;;;1.80;99.90;;;;;;5037590;28;20094;-70
2023/03/02 06:17:00;;;;;;;24.17;16.65;;;1.80;99.90;;;;;;5037201;28;20133;-70
2023/03/02 06:19:26;;;;;;;21.17;15.70;;;1.80;99.90;;;;;;5037480;28;20060;-69
2023/03/02 06:21:51;;;;;;;20.10;16.48;;;1.80;99.90;;;;;;5019171;28;20033;-69
2023/03/02 06:24:17;;;;;;;20.40;15.52;;;1.80;99.90;;;;;;5037265;28;20025;-70
2023/03/02 06:26:43;;;;;;;18.33;16.23;;;1.80;99.90;;;;;;5037383;28;20032;-70
2023/03/02 06:29:10;;;;;;;19.60;16.35;;;1.80;99.90;;;;;;5036216;28;20025;-70
2023/03/02 06:31:36;;;;;;;18.90;14.68;;;1.80;99.90;;;;;;5037349;28;20547;-69
2023/03/02 06:34:01;;;;;;;17.40;14.85;;;1.90;99.90;;;;;;5037210;28;20017;-70
2023/03/02 06:36:27;;;;;;;20.38;15.27;;;1.90;99.90;;;;;;5019146;28;20018;-69
2023/03/02 06:38:53;;;;;;;18.35;14.40;;;1.90;99.90;;;;;;5036915;28;20398;-70
2023/03/02 06:41:19;;;;;;;17.33;13.60;;;2.00;99.90;;;;;;5019234;28;20120;-70
2023/03/02 06:43:45;;;;;;;18.60;15.45;;;2.00;99.90;;;;;;5036960;28;20069;-70
2023/03/02 06:46:11;;;;;;;20.88;15.25;;;2.00;99.90;;;;;;5018820;28;20532;-70
2023/03/02 06:48:37;;;;;;;19.35;15.82;;;2.00;99.90;;;;;;5036861;28;20025;-70
2023/03/02 06:51:03;;;;;;;18.70;16.00;;;2.00;99.90;;;;;;5018891;28;20024;-70
2023/03/02 06:53:29;;;;;;;16.58;14.38;;;2.00;99.90;;;;;;5036776;28;20032;-70
2023/03/02 06:55:54;;;;;;;17.30;14.38;;;2.00;99.90;;;;;;5036730;28;20030;-67
2023/03/02 06:58:20;;;;;;;23.05;17.20;;;2.10;99.90;;;;;;5036788;28;20026;-70
2023/03/02 07:00:46;;;;;;;18.23;15.00;;;2.00;99.90;;;;;;5036804;28;20029;-70
2023/03/02 07:03:11;;;;;;;17.83;15.30;;;2.10;99.90;;;;;;5018832;28;20029;-69
2023/03/02 07:05:37;;;;;;;20.13;16.35;;;2.10;99.90;;;;;;5036545;28;20033;-70
2023/03/02 07:08:03;;;;;;;20.42;15.35;;;2.10;99.90;;;;;;5036641;28;20428;-70
2023/03/02 07:10:29;;;;;;;19.10;15.38;;;2.10;99.90;;;;;;5036371;28;20489;-67
2023/03/02 07:12:54;;;;;;;15.80;13.43;;;2.10;99.90;;;;;;5036596;28;20516;-67
2023/03/02 07:15:21;;;;;;;13.40;11.75;;;2.10;99.90;;;;;;5018311;28;20024;-67
2023/03/02 07:17:47;;;;;;;17.35;14.95;;;2.10;99.90;;;;;;5036835;28;20570;-67
2023/03/02 07:20:15;;;;;;;19.95;14.32;;;2.10;99.90;;;;;;5036642;28;20022;-67
2023/03/02 07:22:41;;;;;;;16.88;15.02;;;2.20;99.90;;;;;;5018345;28;20021;-69
2023/03/02 07:25:08;;;;;;;22.05;14.80;;;2.20;99.90;;;;;;5036342;28;20029;-67
2023/03/02 07:27:33;;;;;;;17.88;14.43;;;2.20;99.90;;;;;;5036429;28;20104;-68
2023/03/02 07:29:59;;;;;;;17.77;13.77;;;2.20;99.90;;;;;;5036275;28;20099;-70
2023/03/02 07:32:25;;;;;;;15.25;13.32;;;2.20;99.90;;;;;;5036629;28;20033;-67
2023/03/02 07:34:51;;;;;;;17.63;14.65;;;2.30;99.90;;;;;;5036520;28;20026;-68
2023/03/02 07:37:16;;;;;;;21.00;15.27;;;2.30;99.90;;;;;;5036419;28;20052;-68
2023/03/02 07:39:42;;;;;;;17.77;14.07;;;2.30;99.90;;;;;;5037318;28;20473;-68
2023/03/02 07:42:11;;;;;;;14.63;12.05;;;2.30;99.90;;;;;;5022183;28;20026;-68
2023/03/02 07:44:37;;;;;;;18.63;14.10;;;2.30;99.90;;;;;;5022451;28;20456;-67
2023/03/02 07:47:03;;;;;;;16.27;14.45;;;2.30;99.90;;;;;;5040286;28;20083;-67
2023/03/02 07:49:29;;;;;;;17.23;13.68;;;2.40;99.90;;;;;;5039111;28;20025;-67
2023/03/02 07:51:54;;;;;;;21.13;16.45;;;2.40;99.90;;;;;;5040125;28;20025;-67
2023/03/02 07:54:20;;;;;;;18.02;13.32;;;2.40;99.90;;;;;;5040106;28;20021;-67
2023/03/02 07:56:46;;;;;;;18.88;13.88;;;2.40;99.90;;;;;;5020976;28;20064;-67
2023/03/02 07:59:13;;;;;;;15.60;13.43;;;2.40;99.90;;;;;;5038785;28;20026;-67
2023/03/02 08:01:39;;;;;;;16.98;13.55;;;2.40;99.90;;;;;;5039460;28;20040;-67
2023/03/02 08:04:05;;;;;;;17.73;14.25;;;2.50;99.90;;;;;;5039171;28;20025;-68
2023/03/02 08:06:30;;;;;;;15.38;13.80;;;2.50;99.90;;;;;;5022119;28;20040;-69
2023/03/02 08:08:59;;;;;;;13.45;11.57;;;2.50;99.90;;;;;;5021926;28;20547;-68
2023/03/02 08:11:24;;;;;;;17.60;13.73;;;2.60;99.90;;;;;;5021869;28;20524;-68
2023/03/02 08:13:50;;;;;;;17.02;14.88;;;2.70;99.90;;;;;;5039704;28;20033;-69
2023/03/02 08:16:16;;;;;;;17.88;13.93;;;2.70;99.90;;;;;;5039408;28;20049;-69
2023/03/02 08:18:42;;;;;;;20.08;15.38;;;2.70;99.90;;;;;;5038793;28;20033;-68
2023/03/02 08:21:21;;;;;;;19.23;13.88;;;2.80;99.90;;;;;;5039854;28;20036;-68
2023/03/02 08:23:47;;;;;;;18.83;14.32;;;2.80;99.90;;;;;;5039015;28;20025;-69
2023/03/02 08:26:14;;;;;;;20.75;13.50;;;2.90;99.90;;;;;;5039556;28;20029;-68
2023/03/02 08:28:39;;;;;;;20.75;14.02;;;2.90;99.90;;;;;;5021711;28;20048;-69
2023/03/02 08:31:07;;;;;;;19.83;13.82;;;2.90;99.90;;;;;;5039248;28;20386;-68
2023/03/02 08:33:33;;;;;;;22.35;13.25;;;3.00;99.90;;;;;;5038910;28;20031;-68
2023/03/02 08:36:06;;;;;;;17.15;14.23;;;3.00;99.90;;;;;;5039038;28;20025;-68
2023/03/02 08:38:33;;;;;;;22.08;16.15;;;3.10;99.90;;;;;;5038908;28;20034;-68
2023/03/02 08:41:03;;;;;;;17.85;14.80;;;3.10;99.90;;;;;;5021131;28;20041;-68
2023/03/02 08:43:28;;;;;;;16.05;13.75;;;3.20;99.90;;;;;;5054417;28;20025;-69
2023/03/02 08:45:58;;;;;;;18.15;14.52;;;3.30;99.90;;;;;;5038884;28;20040;-68
2023/03/02 08:48:24;;;;;;;17.38;13.77;;;3.30;99.90;;;;;;5038888;28;20385;-69
2023/03/02 08:51:06;;;;;;;15.88;14.15;;;3.40;99.90;;;;;;5038247;28;20029;-69
2023/03/02 08:53:34;;;;;;;16.75;13.18;;;3.40;99.90;;;;;;5038553;28;20009;-68
2023/03/02 08:56:00;;;;;;;16.55;11.07;;;3.40;99.90;;;;;;5038738;28;20555;-69
2023/03/02 08:58:27;;;;;;;17.83;13.50;;;3.40;99.90;;;;;;5037814;28;20017;-68
2023/03/02 09:00:52;;;;;;;18.65;12.23;;;3.50;99.90;;;;;;5020774;28;20025;-68
2023/03/02 09:03:18;;;;;;;16.65;13.23;;;3.50;99.90;;;;;;5016331;28;20026;-68
2023/03/02 09:05:44;;;;;;;20.95;14.45;;;3.60;99.90;;;;;;5020332;28;20029;-68
2023/03/02 09:08:10;;;;;;;16.98;14.43;;;3.60;99.90;;;;;;5038697;28;20029;-69
2023/03/02 09:10:36;;;;;;;15.23;13.27;;;3.60;99.90;;;;;;5038014;28;20129;-69
2023/03/02 09:13:02;;;;;;;20.17;15.38;;;3.60;99.90;;;;;;5037503;28;20016;-69
2023/03/02 09:15:28;;;;;;;19.50;16.08;;;3.70;99.90;;;;;;5015378;28;20096;-68
2023/03/02 09:17:53;;;;;;;57.35;31.60;;;3.90;99.90;;;;;;5036424;28;20021;-68
2023/03/02 09:20:19;;;;;;;23.40;16.13;;;4.00;99.90;;;;;;5018112;28;20029;-68
2023/03/02 09:22:49;;;;;;;16.40;13.77;;;4.00;99.90;;;;;;5034774;28;20041;-69
2023/03/02 09:25:17;;;;;;;19.58;16.52;;;4.10;99.90;;;;;;5016390;28;20489;-70
2023/03/02 09:27:43;;;;;;;16.52;13.60;;;4.20;99.90;;;;;;5036615;28;20397;-71
2023/03/02 09:30:09;;;;;;;20.20;14.75;;;4.20;99.90;;;;;;5036674;28;20057;-69
2023/03/02 09:32:35;;;;;;;19.80;15.32;;;4.20;99.90;;;;;;5036908;28;20156;-69
2023/03/02 09:35:01;;;;;;;20.75;15.25;;;4.20;99.90;;;;;;5033874;28;20046;-68
2023/03/02 09:37:27;;;;;;;20.92;15.48;;;4.20;99.90;;;;;;5036789;28;20061;-68
2023/03/02 09:39:53;;;;;;;20.20;14.55;;;4.20;99.90;;;;;;5036532;28;20055;-68
2023/03/02 09:42:52;;;;;;;17.73;15.07;;;4.20;99.90;;;;;;5036199;28;20096;-68
2023/03/02 09:45:33;;;;;;;18.35;15.32;;;4.30;99.90;;;;;;5034736;28;20052;-68
2023/03/02 09:48:17;;;;;;;20.77;15.18;;;4.40;99.90;;;;;;5051095;28;20017;-68
2023/03/02 09:50:55;;;;;;;19.80;16.80;;;4.50;99.90;;;;;;5034387;28;20029;-68
2023/03/02 09:53:26;;;;;;;19.80;14.80;;;4.60;99.90;;;;;;5018503;28;20021;-68
2023/03/02 09:55:58;;;;;;;20.67;16.42;;;4.60;99.90;;;;;;5034422;28;20024;-68
2023/03/02 09:58:30;;;;;;;20.45;15.93;;;4.70;99.90;;;;;;5036035;28;20021;-68
2023/03/02 10:01:00;;;;;;;19.63;15.55;;;4.80;99.90;;;;;;5035921;28;20032;-68
2023/03/02 10:03:37;;;;;;;21.85;16.52;;;4.80;99.90;;;;;;5036041;28;20029;-68
2023/03/02 10:06:03;;;;;;;20.10;15.73;;;4.90;99.90;;;;;;5017689;28;20037;-68
2023/03/02 10:08:33;;;;;;;19.65;15.13;;;5.00;99.90;;;;;;5036225;28;20488;-68
2023/03/02 10:11:22;;;;;;;20.02;16.00;;;5.10;99.90;;;;;;5035881;28;20025;-68
2023/03/02 10:14:14;;;;;;;23.80;16.23;;;5.20;99.90;;;;;;5034061;28;20044;-68
2023/03/02 10:16:46;;;;;;;18.20;14.57;;;5.30;99.90;;;;;;5016981;28;20103;-68
2023/03/02 10:19:40;;;;;;;21.95;15.13;;;5.40;99.90;;;;;;5035422;28;20029;-68
2023/03/02 10:22:25;;;;;;;23.10;16.77;;;5.40;99.90;;;;;;5032934;28;20097;-68
2023/03/02 10:25:19;;;;;;;20.75;15.40;;;5.40;99.90;;;;;;5015842;28;20036;-68
2023/03/02 10:27:51;;;;;;;22.48;17.70;;;5.40;99.90;;;;;;5025202;28;20029;-68
2023/03/02 10:30:30;;;;;;;24.40;17.25;;;5.50;99.90;;;;;;5017724;28;20023;-68
2023/03/02 10:33:02;;;;;;;21.20;17.27;;;5.50;99.90;;;;;;5035480;28;20522;-68
2023/03/02 10:35:29;;;;;;;22.02;16.40;;;5.50;99.90;;;;;;5034646;28;20547;-68
2023/03/02 10:38:14;;;;;;;27.48;13.32;;;5.60;99.90;;;;;;5035383;28;20137;-68
2023/03/02 10:40:55;;;;;;;22.38;17.73;;;5.60;99.90;;;;;;5035661;28;20025;-69
2023/03/02 10:43:57;;;;;;;21.42;16.70;;;5.60;99.90;;;;;;5035855;28;20049;-68
2023/03/02 10:46:22;;;;;;;20.55;16.55;;;5.70;99.90;;;;;;5017306;28;20024;-68
2023/03/02 10:48:56;;;;;;;22.83;18.40;;;5.80;99.90;;;;;;5035148;28;20038;-69
2023/03/02 10:51:21;;;;;;;26.38;16.85;;;5.90;99.90;;;;;;5035098;28;20025;-68
2023/03/02 10:53:47;;;;;;;22.77;15.82;;;5.90;99.90;;;;;;5035381;28;20079;-69
2023/03/02 10:56:21;;;;;;;23.77;16.25;;;6.00;99.90;;;;;;5034455;28;20017;-68
2023/03/02 10:58:46;;;;;;;25.15;17.90;;;6.00;99.90;;;;;;5035055;28;20081;-68
2023/03/02 11:01:18;;;;;;;23.05;17.70;;;6.00;99.90;;;;;;5012957;28;20446;-70
2023/03/02 11:03:56;;;;;;;27.35;19.77;;;6.10;99.90;;;;;;5033093;28;20060;-70
2023/03/02 11:06:23;;;;;;;24.02;18.42;;;6.10;99.90;;;;;;5031165;28;20095;-71
2023/03/02 11:09:03;;;;;;;20.83;16.98;;;6.20;99.90;;;;;;5034098;28;20842;-70
2023/03/02 11:11:29;;;;;;;26.40;19.30;;;6.10;99.90;;;;;;5034650;28;20036;-71
2023/03/02 11:13:55;;;;;;;28.45;19.40;;;6.10;99.90;;;;;;5033698;28;20025;-70
2023/03/02 11:16:23;;;;;;;24.45;16.98;;;6.10;99.90;;;;;;5039667;28;20050;-70
2023/03/02 11:19:01;;;;;;;22.60;18.08;;;6.10;99.90;;;;;;5041523;28;20026;-70
2023/03/02 11:21:38;;;;;;;25.95;19.40;;;6.00;99.90;;;;;;5040950;28;20100;-70
2023/03/02 11:24:34;;;;;;;23.73;19.00;;;6.10;99.90;;;;;;5023677;28;20029;-70
2023/03/02 11:27:13;;;;;;;31.45;18.85;;;6.10;99.90;;;;;;5024166;28;20053;-70
2023/03/02 11:30:10;;;;;;;25.55;18.90;;;6.10;99.90;;;;;;5041215;28;20031;-70
2023/03/02 11:32:52;;;;;;;24.73;17.55;;;6.20;99.90;;;;;;5026435;28;20037;-70
2023/03/02 11:35:49;;;;;;;25.88;19.58;;;6.20;99.90;;;;;;5039634;28;20442;-70
2023/03/02 11:38:28;;;;;;;25.33;17.90;;;6.20;99.90;;;;;;5041575;28;20032;-70
2023/03/02 11:41:02;;;;;;;25.17;18.63;;;6.20;99.90;;;;;;5023483;28;20486;-70
2023/03/02 11:43:28;;;;;;;25.42;19.15;;;6.30;99.90;;;;;;5041835;28;20026;-70
2023/03/02 11:45:59;;;;;;;34.00;21.05;;;6.30;99.90;;;;;;5038956;28;20575;-70
2023/03/02 11:48:24;;;;;;;;;;;6.30;99.90;;;;;;5023935;28;20076;-70
2023/03/02 11:50:50;;;;;;;27.35;18.55;;;6.40;99.90;;;;;;5023527;28;19909;-70
2023/03/02 11:53:18;;;;;;;26.27;18.58;;;6.50;99.90;;;;;;5023982;28;20024;-70
2023/03/02 11:55:48;;;;;;;28.90;20.23;;;6.60;99.90;;;;;;5039756;28;20025;-70
2023/03/02 11:58:20;;;;;;;29.73;19.85;;;6.70;99.90;;;;;;5041415;28;20026;-70
2023/03/02 12:00:47;;;;;;;22.52;17.73;;;6.80;99.90;;;;;;5037462;28;20059;-71
2023/03/02 12:03:14;;;;;;;28.40;18.73;;;6.80;99.90;;;;;;5041554;28;20049;-71
2023/03/02 12:05:43;;;;;;;23.92;18.60;;;6.80;99.90;;;;;;5040772;28;20408;-69
2023/03/02 12:08:18;;;;;;;25.60;20.10;;;6.80;99.90;;;;;;5032594;28;20021;-69
2023/03/02 12:10:57;;;;;;;28.23;19.17;;;7.00;99.90;;;;;;5047857;28;20036;-69
2023/03/02 12:13:37;;;;;;;29.45;19.35;;;7.10;99.90;;;;;;5033168;28;20020;-70
2023/03/02 12:16:18;;;;;;;28.50;16.45;;;7.20;99.90;;;;;;5034958;28;20129;-70
2023/03/02 12:18:43;;;;;;;;;;;7.30;99.90;;;;;;5029454;28;20095;-69
2023/03/02 12:21:11;;;;;;;30.98;17.90;;;7.30;99.90;;;;;;5022363;28;19913;-70
2023/03/02 12:23:42;;;;;;;26.35;16.67;;;7.30;99.90;;;;;;5027033;28;20033;-70
2023/03/02 12:26:20;;;;;;;27.67;18.85;;;7.30;99.90;;;;;;5030951;28;20026;-71
2023/03/02 12:28:55;;;;;;;27.23;19.50;;;7.40;99.90;;;;;;5033521;28;20022;-69
2023/03/02 12:31:21;;;;;;;26.15;19.05;;;7.50;99.90;;;;;;5035144;28;20028;-69
2023/03/02 12:33:49;;;;;;;25.88;19.02;;;7.60;99.90;;;;;;5020811;28;20025;-69
2023/03/02 12:36:40;;;;;;;30.08;20.33;;;7.60;99.90;;;;;;5035178;28;20056;-69
2023/03/02 12:39:24;;;;;;;26.15;18.48;;;7.50;99.90;;;;;;5036739;28;20029;-70
2023/03/02 12:42:29;;;;;;;27.48;20.20;;;7.50;99.90;;;;;;5035757;28;20137;-70
2023/03/02 12:45:45;;;;;;;27.55;19.63;;;7.60;99.90;;;;;;4970124;28;20019;-70
2023/03/02 12:48:47;;;;;;;29.13;19.35;;;7.60;99.90;;;;;;4937013;29;20156;-70
2023/03/02 12:51:21;;;;;;;28.40;19.23;;;7.60;99.90;;;;;;4955866;28;20047;-70